Time,TemperatureF,DewpointF,PressureIn,WindDirection,WindDirectionDegrees,WindSpeedMPH,WindSpeedGustMPH,Humidity,HourlyPrecipIn,Conditions,Clouds,dailyrainin,SoftwareType,DateUTC
2013-04-11 00:00:00,77.5,66.9,29.99,ENE,62,0.0,0.0,70,0.00,CLR,OVC,0.00,WeatherDisplay:10.37,2013-04-11 04:00:00,
2013-04-11 00:05:00,77.4,66.8,30.00,ENE,62,0.0,0.0,70,0.00,CLR,OVC,0.00,WeatherDisplay:10.37,2013-04-11 04:05:00,
2013-04-11 00:10:00,77.3,66.7,30.00,ENE,62,0.0,0.0,70,0.00,CLR,OVC,0.00,WeatherDisplay:10.37,2013-04-11 04:10:00,
2013-04-11 00:15:00,77.2,67.1,30.00,ENE,62,0.0,0.0,71,0.00,CLR,OVC,0.00,WeatherDisplay:10.37,2013-04-11 04:15:00,
2013-04-11 00:20:00,77.1,67.0,30.00,ENE,62,0.0,0.0,71,0.00,CLR,OVC,0.00,WeatherDisplay:10.37,2013-04-11 04:20:00,
2013-04-11 00:25:00,76.9,66.8,30.00,ESE,116,0.7,3.1,71,0.00,CLR,OVC,0.00,WeatherDisplay:10.37,2013-04-11 04:25:00,
2013-04-11 00:30:00,76.8,67.1,30.00,SSE,154,2.3,2.3,72,0.00,CLR,OVC,0.00,WeatherDisplay:10.37,2013-04-11 04:30:00,
2013-04-11 00:35:00,76.7,67.0,30.00,ESE,104,3.7,4.6,72,0.00,CLR,OVC,0.00,WeatherDisplay:10.37,2013-04-11 04:35:00,
2013-04-11 00:40:00,76.8,67.1,29.99,SSE,147,2.9,4.6,72,0.00,CLR,OVC,0.00,WeatherDisplay:10.37,2013-04-11 04:40:00,
2013-04-11 00:45:00,76.6,66.9,29.99,SE,143,4.2,6.9,72,0.00,CLR,OVC,0.00,WeatherDisplay:10.37,2013-04-11 04:45:00,
2013-04-11 00:50:00,76.5,66.8,29.99,ESE,107,3.9,5.8,72,0.00,CLR,OVC,0.00,WeatherDisplay:10.37,2013-04-11 04:50:00,
2013-04-11 00:55:00,76.3,66.6,29.99,ESE,116,4.7,6.9,72,0.00,CLR,OVC,0.00,WeatherDisplay:10.37,2013-04-11 04:55:00,
2013-04-11 01:00:00,76.1,66.4,29.99,SE,141,4.6,6.9,72,0.00,CLR,OVC,0.00,WeatherDisplay:10.37,2013-04-11 05:00:00,
2013-04-11 01:05:00,76.2,66.5,30.00,SE,126,5.9,8.1,72,0.00,CLR,OVC,0.00,WeatherDisplay:10.37,2013-04-11 05:05:00,
2013-04-11 01:10:00,76.1,66.4,30.00,SE,131,5.7,9.0,72,0.00,CLR,OVC,0.00,WeatherDisplay:10.37,2013-04-11 05:10:00,
2013-04-11 01:15:00,76.0,66.7,30.00,SE,143,6.1,10.4,73,0.00,CLR,OVC,0.00,WeatherDisplay:10.37,2013-04-11 05:15:00,
2013-04-11 01:20:00,76.0,66.7,29.99,SSE,162,5.0,8.1,73,0.00,CLR,OVC,0.00,WeatherDisplay:10.37,2013-04-11 05:20:00,
2013-04-11 01:25:00,75.9,66.6,29.99,SE,137,8.2,12.7,73,0.00,CLR,OVC,0.00,WeatherDisplay:10.37,2013-04-11 05:25:00,
2013-04-11 01:30:00,75.8,66.5,29.99,SE,134,7.1,9.2,73,0.00,CLR,OVC,0.00,WeatherDisplay:10.37,2013-04-11 05:30:00,
2013-04-11 01:35:00,75.9,67.0,29.98,SSE,161,8.8,9.5,74,0.00,CLR,OVC,0.00,WeatherDisplay:10.37,2013-04-11 05:35:00,
2013-04-11 01:40:00,75.9,67.4,29.98,SE,141,7.6,10.4,75,0.00,CLR,OVC,0.00,WeatherDisplay:10.37,2013-04-11 05:40:00,
2013-04-11 01:45:00,75.8,67.7,29.98,SE,140,4.4,5.8,76,0.00,CLR,OVC,0.00,WeatherDisplay:10.37,2013-04-11 05:45:00,
2013-04-11 01:50:00,75.9,67.8,29.98,SE,126,5.6,6.9,76,0.00,CLR,OVC,0.00,WeatherDisplay:10.37,2013-04-11 05:50:00,
2013-04-11 01:55:00,75.7,68.4,29.97,ESE,112,4.7,8.1,78,0.00,CLR,OVC,0.00,WeatherDisplay:10.37,2013-04-11 05:55:00,
2013-04-11 02:00:00,75.8,68.8,29.97,SE,131,6.2,10.4,79,0.00,CLR,OVC,0.00,WeatherDisplay:10.37,2013-04-11 06:00:00,
2013-04-11 02:05:00,75.7,69.1,29.97,SE,143,5.4,9.2,80,0.00,CLR,OVC,0.00,WeatherDisplay:10.37,2013-04-11 06:05:00,
2013-04-11 02:10:00,75.4,68.8,29.96,SE,143,4.8,9.1,80,0.00,CLR,OVC,0.00,WeatherDisplay:10.37,2013-04-11 06:10:00,
2013-04-11 02:15:00,75.4,69.2,29.96,SSE,147,6.3,8.1,81,0.00,CLR,OVC,0.00,WeatherDisplay:10.37,2013-04-11 06:15:00,
2013-04-11 02:20:00,75.3,69.1,29.96,SSE,157,3.9,4.6,81,0.00,CLR,OVC,0.00,WeatherDisplay:10.37,2013-04-11 06:20:00,
2013-04-11 02:25:00,75.3,69.1,29.96,South,171,3.2,8.1,81,0.00,CLR,OVC,0.00,WeatherDisplay:10.37,2013-04-11 06:25:00,
2013-04-11 02:30:00,75.3,69.4,29.96,SSE,151,2.8,4.6,82,0.00,CLR,OVC,0.00,WeatherDisplay:10.37,2013-04-11 06:30:00,
2013-04-11 02:35:00,75.1,69.2,29.96,SE,127,5.5,5.8,82,0.00,CLR,OVC,0.00,WeatherDisplay:10.37,2013-04-11 06:35:00,
2013-04-11 02:40:00,75.1,69.2,29.95,SSE,152,3.1,6.9,82,0.00,CLR,OVC,0.00,WeatherDisplay:10.37,2013-04-11 06:40:00,
2013-04-11 02:45:00,75.1,69.6,29.95,SE,140,8.1,8.8,83,0.00,CLR,OVC,0.00,WeatherDisplay:10.37,2013-04-11 06:45:00,
2013-04-11 02:50:00,74.9,69.4,29.95,SE,137,6.9,9.2,83,0.00,CLR,OVC,0.00,WeatherDisplay:10.37,2013-04-11 06:50:00,
2013-04-11 02:55:00,74.9,69.7,29.95,SSE,150,5.1,10.4,84,0.00,CLR,OVC,0.00,WeatherDisplay:10.37,2013-04-11 06:55:00,
2013-04-11 03:00:00,74.8,69.6,29.94,SSE,164,7.0,8.6,84,0.00,CLR,OVC,0.00,WeatherDisplay:10.37,2013-04-11 07:00:00,
2013-04-11 03:05:00,74.6,69.4,29.94,SSE,147,7.1,10.4,84,0.00,CLR,OVC,0.00,WeatherDisplay:10.37,2013-04-11 07:05:00,
2013-04-11 03:10:00,74.6,69.8,29.94,SE,138,8.3,10.4,85,0.00,CLR,OVC,0.00,WeatherDisplay:10.37,2013-04-11 07:10:00,
2013-04-11 03:15:00,74.6,70.1,29.94,SSE,161,8.8,10.4,86,0.00,CLR,OVC,0.00,WeatherDisplay:10.37,2013-04-11 07:15:00,
2013-04-11 03:20:00,74.3,69.8,29.94,SE,145,7.9,11.5,86,0.00,CLR,OVC,0.00,WeatherDisplay:10.37,2013-04-11 07:20:00,
2013-04-11 03:25:00,74.4,69.9,29.94,SE,138,8.2,11.5,86,0.00,CLR,OVC,0.00,WeatherDisplay:10.37,2013-04-11 07:25:00,
2013-04-11 03:30:00,74.6,70.1,29.94,SSE,152,5.5,10.4,86,0.00,CLR,OVC,0.00,WeatherDisplay:10.37,2013-04-11 07:30:00,
2013-04-11 03:35:00,74.4,69.9,29.95,SSE,165,8.3,12.7,86,0.00,CLR,OVC,0.00,WeatherDisplay:10.37,2013-04-11 07:35:00,
2013-04-11 03:40:00,74.5,70.0,29.95,SSE,164,8.4,12.7,86,0.00,CLR,OVC,0.00,WeatherDisplay:10.37,2013-04-11 07:40:00,
2013-04-11 03:45:00,74.5,70.4,29.95,ESE,113,8.2,9.2,87,0.00,CLR,OVC,0.00,WeatherDisplay:10.37,2013-04-11 07:45:00,
2013-04-11 03:50:00,74.5,70.4,29.95,SSE,154,6.6,11.5,87,0.00,CLR,OVC,0.00,WeatherDisplay:10.37,2013-04-11 07:50:00,
2013-04-11 03:55:00,74.4,70.3,29.95,SSE,167,6.5,11.5,87,0.00,CLR,OVC,0.00,WeatherDisplay:10.37,2013-04-11 07:55:00,
2013-04-11 04:00:00,74.3,70.2,29.95,ESE,114,6.3,12.1,87,0.00,CLR,OVC,0.00,WeatherDisplay:10.37,2013-04-11 08:00:00,
2013-04-11 04:05:00,74.2,70.1,29.95,SSE,164,6.7,9.2,87,0.00,CLR,OVC,0.00,WeatherDisplay:10.37,2013-04-11 08:05:00,
2013-04-11 04:10:00,74.4,70.3,29.95,SSE,157,5.8,9.2,87,0.00,CLR,OVC,0.00,WeatherDisplay:10.37,2013-04-11 08:10:00,
2013-04-11 04:15:00,74.4,70.6,29.95,SSE,168,6.5,9.2,88,0.00,CLR,OVC,0.00,WeatherDisplay:10.37,2013-04-11 08:15:00,
2013-04-11 04:20:00,74.3,70.5,29.95,SE,130,7.7,12.7,88,0.00,CLR,OVC,0.00,WeatherDisplay:10.37,2013-04-11 08:20:00,
2013-04-11 04:25:00,74.3,70.5,29.95,SE,136,10.1,13.8,88,0.00,CLR,OVC,0.00,WeatherDisplay:10.37,2013-04-11 08:25:00,
2013-04-11 04:30:00,74.2,70.4,29.95,SSE,154,6.6,11.5,88,0.00,CLR,OVC,0.00,WeatherDisplay:10.37,2013-04-11 08:30:00,
2013-04-11 04:35:00,74.2,70.4,29.95,SE,143,7.8,11.5,88,0.00,CLR,OVC,0.00,WeatherDisplay:10.37,2013-04-11 08:35:00,
2013-04-11 04:40:00,74.1,70.3,29.95,SSE,151,7.5,9.2,88,0.00,CLR,OVC,0.00,WeatherDisplay:10.37,2013-04-11 08:40:00,
2013-04-11 04:45:00,74.0,70.2,29.95,SSE,162,7.3,8.1,88,0.00,CLR,OVC,0.00,WeatherDisplay:10.37,2013-04-11 08:45:00,
2013-04-11 04:50:00,74.0,70.2,29.95,SSE,161,7.3,9.2,88,0.00,CLR,OVC,0.00,WeatherDisplay:10.37,2013-04-11 08:50:00,
2013-04-11 04:55:00,74.1,70.6,29.95,SSE,154,5.4,8.1,89,0.00,CLR,OVC,0.00,WeatherDisplay:10.37,2013-04-11 08:55:00,
2013-04-11 05:00:00,74.0,70.2,29.94,SSE,150,7.3,8.7,88,0.00,CLR,OVC,0.00,WeatherDisplay:10.37,2013-04-11 09:00:00,
2013-04-11 05:05:00,74.0,70.6,29.94,SSE,155,7.2,10.9,89,0.00,CLR,OVC,0.00,WeatherDisplay:10.37,2013-04-11 09:05:00,
2013-04-11 05:10:00,73.9,70.5,29.94,SE,144,7.5,11.5,89,0.00,CLR,OVC,0.00,WeatherDisplay:10.37,2013-04-11 09:10:00,
2013-04-11 05:15:00,73.9,70.5,29.94,SSE,154,7.3,9.2,89,0.00,CLR,OVC,0.00,WeatherDisplay:10.37,2013-04-11 09:15:00,
2013-04-11 05:20:00,73.8,70.4,29.94,SE,144,6.2,6.9,89,0.00,CLR,OVC,0.00,WeatherDisplay:10.37,2013-04-11 09:20:00,
2013-04-11 05:25:00,73.8,70.4,29.94,South,185,7.1,9.2,89,0.00,CLR,OVC,0.00,WeatherDisplay:10.37,2013-04-11 09:25:00,
2013-04-11 05:30:00,73.9,70.8,29.94,SSE,154,5.9,9.2,90,0.00,CLR,OVC,0.00,WeatherDisplay:10.37,2013-04-11 09:30:00,
2013-04-11 05:35:00,73.9,70.8,29.94,SSE,160,6.4,9.2,90,0.00,CLR,OVC,0.00,WeatherDisplay:10.37,2013-04-11 09:35:00,
2013-04-11 05:40:00,73.8,70.7,29.94,SSE,162,8.0,10.8,90,0.00,CLR,OVC,0.00,WeatherDisplay:10.37,2013-04-11 09:40:00,
2013-04-11 05:45:00,73.8,70.7,29.94,SE,144,9.2,12.7,90,0.00,CLR,OVC,0.00,WeatherDisplay:10.37,2013-04-11 09:45:00,
2013-04-11 05:50:00,73.8,70.7,29.94,SSE,165,9.4,11.5,90,0.00,CLR,OVC,0.00,WeatherDisplay:10.37,2013-04-11 09:50:00,
2013-04-11 05:55:00,73.8,70.7,29.94,SSE,158,7.6,11.5,90,0.00,CLR,OVC,0.00,WeatherDisplay:10.37,2013-04-11 09:55:00,
2013-04-11 06:00:00,73.8,70.7,29.94,South,171,9.0,13.8,90,0.00,CLR,OVC,0.00,WeatherDisplay:10.37,2013-04-11 10:00:00,
2013-04-11 06:05:00,73.8,71.0,29.93,SSE,151,9.2,17.3,91,0.00,CLR,OVC,0.00,WeatherDisplay:10.37,2013-04-11 10:05:00,
2013-04-11 06:10:00,73.8,71.0,29.93,SSE,160,9.0,16.1,91,0.00,CLR,OVC,0.00,WeatherDisplay:10.37,2013-04-11 10:10:00,
2013-04-11 06:15:00,73.9,71.1,29.93,SE,134,10.1,13.8,91,0.00,CLR,OVC,0.00,WeatherDisplay:10.37,2013-04-11 10:15:00,
2013-04-11 06:20:00,73.9,71.1,29.93,SE,145,10.4,13.8,91,0.00,CLR,OVC,0.00,WeatherDisplay:10.37,2013-04-11 10:20:00,
2013-04-11 06:25:00,73.9,71.1,29.93,SSW,213,8.4,11.5,91,0.00,CLR,OVC,0.00,WeatherDisplay:10.37,2013-04-11 10:25:00,
2013-04-11 06:30:00,73.8,71.0,29.94,South,179,10.3,16.1,91,0.00,CLR,OVC,0.00,WeatherDisplay:10.37,2013-04-11 10:30:00,
2013-04-11 06:35:00,73.9,71.1,29.94,SE,143,11.5,13.8,91,0.00,CLR,OVC,0.00,WeatherDisplay:10.37,2013-04-11 10:35:00,
2013-04-11 06:40:00,73.9,71.1,29.94,SSE,148,11.6,15.0,91,0.00,CLR,OVC,0.00,WeatherDisplay:10.37,2013-04-11 10:40:00,
2013-04-11 06:45:00,74.0,71.2,29.94,South,171,10.0,13.8,91,0.00,CLR,OVC,0.00,WeatherDisplay:10.37,2013-04-11 10:45:00,
2013-04-11 06:50:00,73.9,71.1,29.95,SE,126,8.4,15.0,91,0.00,CLR,OVC,0.00,WeatherDisplay:10.37,2013-04-11 10:50:00,
2013-04-11 06:55:00,73.9,71.1,29.95,SSE,154,9.2,11.2,91,0.00,CLR,OVC,0.00,WeatherDisplay:10.37,2013-04-11 10:55:00,
2013-04-11 07:00:00,74.0,71.2,29.95,SSE,147,7.9,13.8,91,0.00,CLR,OVC,0.00,WeatherDisplay:10.37,2013-04-11 11:00:00,
2013-04-11 07:05:00,73.9,71.1,29.95,SSE,158,10.4,12.7,91,0.00,CLR,OVC,0.00,WeatherDisplay:10.37,2013-04-11 11:05:00,
2013-04-11 07:10:00,74.0,71.2,29.95,SSE,154,9.3,12.7,91,0.00,CLR,OVC,0.00,WeatherDisplay:10.37,2013-04-11 11:10:00,
2013-04-11 07:15:00,73.9,71.1,29.96,SSE,158,9.0,12.7,91,0.00,CLR,OVC,0.00,WeatherDisplay:10.37,2013-04-11 11:15:00,
2013-04-11 07:20:00,73.9,71.1,29.96,SSE,147,7.8,11.5,91,0.00,CLR,OVC,0.00,WeatherDisplay:10.37,2013-04-11 11:20:00,
2013-04-11 07:25:00,73.8,71.0,29.96,SE,143,12.0,13.8,91,0.00,CLR,OVC,0.00,WeatherDisplay:10.37,2013-04-11 11:25:00,
2013-04-11 07:30:00,73.8,71.0,29.96,SSE,154,9.7,13.8,91,0.00,CLR,OVC,0.00,WeatherDisplay:10.37,2013-04-11 11:30:00,
2013-04-11 07:35:00,73.9,71.1,29.97,SSE,148,7.8,11.5,91,0.00,CLR,OVC,0.00,WeatherDisplay:10.37,2013-04-11 11:35:00,
2013-04-11 07:40:00,73.9,71.1,29.97,SE,145,10.8,15.0,91,0.00,CLR,OVC,0.00,WeatherDisplay:10.37,2013-04-11 11:40:00,
2013-04-11 07:45:00,74.1,71.3,29.96,ESE,121,8.7,12.7,91,0.00,CLR,OVC,0.00,WeatherDisplay:10.37,2013-04-11 11:45:00,
2013-04-11 07:50:00,74.1,71.3,29.96,South,182,11.3,15.4,91,0.00,CLR,OVC,0.00,WeatherDisplay:10.37,2013-04-11 11:50:00,
2013-04-11 07:55:00,74.1,71.3,29.96,SSE,157,7.8,12.7,91,0.00,CLR,OVC,0.00,WeatherDisplay:10.37,2013-04-11 11:55:00,
2013-04-11 08:00:00,74.3,71.5,29.96,South,171,8.4,12.7,91,0.00,CLR,OVC,0.00,WeatherDisplay:10.37,2013-04-11 12:00:00,
2013-04-11 08:05:00,74.3,71.5,29.96,SSE,154,9.6,11.5,91,0.00,CLR,OVC,0.00,WeatherDisplay:10.37,2013-04-11 12:05:00,
2013-04-11 08:10:00,74.4,71.3,29.96,SSE,160,7.7,10.4,90,0.00,CLR,OVC,0.00,WeatherDisplay:10.37,2013-04-11 12:10:00,
2013-04-11 08:15:00,74.5,71.4,29.97,SE,133,9.4,12.7,90,0.00,CLR,OVC,0.00,WeatherDisplay:10.37,2013-04-11 12:15:00,
2013-04-11 08:20:00,74.6,71.5,29.96,SSE,151,7.8,10.4,90,0.00,CLR,OVC,0.00,WeatherDisplay:10.37,2013-04-11 12:20:00,
2013-04-11 08:25:00,74.8,71.7,29.97,SE,145,8.7,11.5,90,0.00,CLR,OVC,0.00,WeatherDisplay:10.37,2013-04-11 12:25:00,
2013-04-11 08:30:00,75.0,71.9,29.97,South,181,8.4,11.5,90,0.00,CLR,OVC,0.00,WeatherDisplay:10.37,2013-04-11 12:30:00,
2013-04-11 08:35:00,75.1,71.6,29.97,SSE,160,8.9,13.8,89,0.00,CLR,OVC,0.00,WeatherDisplay:10.37,2013-04-11 12:35:00,
2013-04-11 08:40:00,75.3,71.8,29.97,South,171,8.1,12.5,89,0.00,CLR,OVC,0.00,WeatherDisplay:10.37,2013-04-11 12:40:00,
2013-04-11 08:45:00,75.4,71.6,29.97,South,169,8.7,16.1,88,0.00,CLR,OVC,0.00,WeatherDisplay:10.37,2013-04-11 12:45:00,
2013-04-11 08:50:00,75.4,71.6,29.97,SSE,155,12.9,18.4,88,0.00,CLR,OVC,0.00,WeatherDisplay:10.37,2013-04-11 12:50:00,
2013-04-11 08:55:00,75.4,71.6,29.97,SE,128,11.2,17.3,88,0.00,CLR,OVC,0.00,WeatherDisplay:10.37,2013-04-11 12:55:00,
2013-04-11 09:00:00,76.0,71.8,29.97,SSE,160,8.9,15.0,87,0.00,CLR,OVC,0.00,WeatherDisplay:10.37,2013-04-11 13:00:00,
2013-04-11 09:05:00,76.1,71.6,29.97,SSE,155,13.3,16.1,86,0.00,CLR,OVC,0.00,WeatherDisplay:10.37,2013-04-11 13:05:00,
2013-04-11 09:10:00,76.6,72.1,29.98,South,182,13.0,18.0,86,0.00,CLR,OVC,0.00,WeatherDisplay:10.37,2013-04-11 13:10:00,
2013-04-11 09:15:00,76.9,72.0,29.97,South,179,9.2,15.0,85,0.00,CLR,OVC,0.00,WeatherDisplay:10.37,2013-04-11 13:15:00,
2013-04-11 09:20:00,77.3,72.1,29.97,SSE,157,12.9,17.3,84,0.00,CLR,OVC,0.00,WeatherDisplay:10.37,2013-04-11 13:20:00,
2013-04-11 09:25:00,77.4,72.2,29.97,SE,143,10.2,12.7,84,0.00,CLR,OVC,0.00,WeatherDisplay:10.37,2013-04-11 13:25:00,
2013-04-11 09:30:00,77.9,72.3,29.97,SSE,161,11.5,12.7,83,0.00,CLR,OVC,0.00,WeatherDisplay:10.37,2013-04-11 13:30:00,
2013-04-11 09:35:00,78.2,72.3,29.97,South,172,9.0,12.1,82,0.00,CLR,OVC,0.00,WeatherDisplay:10.37,2013-04-11 13:35:00,
2013-04-11 09:40:00,78.4,72.4,29.97,SSE,160,7.6,11.5,82,0.00,CLR,OVC,0.00,WeatherDisplay:10.37,2013-04-11 13:40:00,
2013-04-11 09:45:00,78.5,71.8,29.96,SSE,158,12.4,15.0,80,0.00,CLR,OVC,0.00,WeatherDisplay:10.37,2013-04-11 13:45:00,
2013-04-11 09:50:00,78.9,72.6,29.96,SSE,161,8.8,11.5,81,0.00,CLR,OVC,0.00,WeatherDisplay:10.37,2013-04-11 13:50:00,
2013-04-11 09:55:00,79.2,72.5,29.96,South,189,14.3,16.1,80,0.00,CLR,OVC,0.00,WeatherDisplay:10.37,2013-04-11 13:55:00,
2013-04-11 10:00:00,79.2,71.7,29.96,SSE,157,15.2,19.6,78,0.00,CLR,OVC,0.00,WeatherDisplay:10.37,2013-04-11 14:00:00,
2013-04-11 10:05:00,79.4,71.9,29.97,SSE,158,14.1,22.4,78,0.00,CLR,OVC,0.00,WeatherDisplay:10.37,2013-04-11 14:05:00,
2013-04-11 10:10:00,79.9,72.0,29.96,South,184,10.4,13.5,77,0.00,CLR,OVC,0.00,WeatherDisplay:10.37,2013-04-11 14:10:00,
2013-04-11 10:15:00,80.2,71.9,29.96,SSE,147,10.7,16.1,76,0.00,CLR,OVC,0.00,WeatherDisplay:10.37,2013-04-11 14:15:00,
2013-04-11 10:20:00,80.4,72.1,29.96,ESE,103,9.5,15.0,76,0.00,CLR,OVC,0.00,WeatherDisplay:10.37,2013-04-11 14:20:00,
2013-04-11 10:25:00,80.5,71.4,29.96,South,176,14.1,16.1,74,0.00,CLR,OVC,0.00,WeatherDisplay:10.37,2013-04-11 14:25:00,
2013-04-11 10:30:00,80.7,71.6,29.96,SSE,152,13.9,17.3,74,0.00,CLR,OVC,0.00,WeatherDisplay:10.37,2013-04-11 14:30:00,
2013-04-11 10:35:00,81.2,71.7,29.96,SSE,152,10.2,19.6,73,0.00,CLR,OVC,0.00,WeatherDisplay:10.37,2013-04-11 14:35:00,
2013-04-11 10:40:00,81.6,72.1,29.96,SSE,151,10.3,13.8,73,0.00,CLR,OVC,0.00,WeatherDisplay:10.37,2013-04-11 14:40:00,
2013-04-11 10:45:00,81.9,71.6,29.96,SE,127,13.9,18.4,71,0.00,CLR,OVC,0.00,WeatherDisplay:10.37,2013-04-11 14:45:00,
2013-04-11 10:50:00,81.9,71.6,29.97,South,169,11.9,16.1,71,0.00,CLR,OVC,0.00,WeatherDisplay:10.37,2013-04-11 14:50:00,
2013-04-11 10:55:00,82.3,71.5,29.96,SSE,162,15.6,23.0,70,0.00,CLR,OVC,0.00,WeatherDisplay:10.37,2013-04-11 14:55:00,
2013-04-11 11:00:00,82.2,71.0,29.97,South,184,14.3,17.3,69,0.00,CLR,OVC,0.00,WeatherDisplay:10.37,2013-04-11 15:00:00,
2013-04-11 11:05:00,82.7,71.9,29.97,SSE,160,11.2,18.4,70,0.00,CLR,OVC,0.00,WeatherDisplay:10.37,2013-04-11 15:05:00,
2013-04-11 11:10:00,82.7,70.6,29.97,SSE,167,15.5,21.9,67,0.00,CLR,OVC,0.00,WeatherDisplay:10.37,2013-04-11 15:10:00,
2013-04-11 11:15:00,83.4,71.7,29.97,SSE,168,11.5,13.8,68,0.00,CLR,OVC,0.00,WeatherDisplay:10.37,2013-04-11 15:15:00,
2013-04-11 11:20:00,83.6,71.5,29.97,ESE,116,14.7,20.7,67,0.00,CLR,OVC,0.00,WeatherDisplay:10.37,2013-04-11 15:20:00,
2013-04-11 11:25:00,83.7,71.1,29.97,SSE,164,15.2,18.4,66,0.00,CLR,OVC,0.00,WeatherDisplay:10.37,2013-04-11 15:25:00,
2013-04-11 11:30:00,84.1,71.5,29.97,South,174,12.4,19.6,66,0.00,CLR,OVC,0.00,WeatherDisplay:10.37,2013-04-11 15:30:00,
2013-04-11 11:35:00,84.5,71.4,29.97,SSE,151,12.9,18.6,65,0.00,CLR,OVC,0.00,WeatherDisplay:10.37,2013-04-11 15:35:00,
2013-04-11 11:40:00,84.5,71.0,29.97,South,189,12.8,17.3,64,0.00,CLR,OVC,0.00,WeatherDisplay:10.37,2013-04-11 15:40:00,
2013-04-11 11:45:00,84.1,71.1,29.97,South,179,15.0,20.1,65,0.00,CLR,OVC,0.00,WeatherDisplay:10.37,2013-04-11 15:45:00,
2013-04-11 11:50:00,83.9,70.9,29.97,SSW,195,10.5,18.4,65,0.00,CLR,OVC,0.00,WeatherDisplay:10.37,2013-04-11 15:50:00,
2013-04-11 11:55:00,83.9,71.3,29.96,SSE,164,14.3,17.3,66,0.00,CLR,OVC,0.00,WeatherDisplay:10.37,2013-04-11 15:55:00,
2013-04-11 12:00:00,83.7,70.7,29.96,SE,137,14.9,20.7,65,0.00,CLR,OVC,0.00,WeatherDisplay:10.37,2013-04-11 16:00:00,
2013-04-11 12:05:00,84.0,71.4,29.96,SSE,160,9.0,17.3,66,0.00,CLR,OVC,0.00,WeatherDisplay:10.37,2013-04-11 16:05:00,
2013-04-11 12:10:00,84.4,70.9,29.96,South,175,11.7,19.6,64,0.00,CLR,OVC,0.00,WeatherDisplay:10.37,2013-04-11 16:10:00,
2013-04-11 12:15:00,85.0,70.0,29.96,South,179,15.7,22.6,61,0.00,CLR,OVC,0.00,WeatherDisplay:10.37,2013-04-11 16:15:00,
2013-04-11 12:20:00,84.9,70.4,29.97,South,176,14.6,21.9,62,0.00,CLR,OVC,0.00,WeatherDisplay:10.37,2013-04-11 16:20:00,
2013-04-11 12:25:00,85.0,71.0,29.96,SE,144,11.5,16.1,63,0.00,CLR,OVC,0.00,WeatherDisplay:10.37,2013-04-11 16:25:00,
2013-04-11 12:30:00,85.7,70.7,29.96,SSE,161,17.3,23.0,61,0.00,CLR,OVC,0.00,WeatherDisplay:10.37,2013-04-11 16:30:00,
2013-04-11 12:35:00,86.0,70.5,29.96,South,188,11.6,18.4,60,0.00,CLR,OVC,0.00,WeatherDisplay:10.37,2013-04-11 16:35:00,
2013-04-11 12:40:00,86.5,71.0,29.96,SSE,164,9.7,16.1,60,0.00,CLR,OVC,0.00,WeatherDisplay:10.37,2013-04-11 16:40:00,
2013-04-11 12:45:00,87.0,70.9,29.95,SSE,157,11.8,17.3,59,0.00,CLR,OVC,0.00,WeatherDisplay:10.37,2013-04-11 16:45:00,
2013-04-11 12:50:00,87.2,71.1,29.95,SSW,203,12.1,16.1,59,0.00,CLR,OVC,0.00,WeatherDisplay:10.37,2013-04-11 16:50:00,
2013-04-11 12:55:00,87.0,69.9,29.95,South,184,14.1,19.6,57,0.00,CLR,OVC,0.00,WeatherDisplay:10.37,2013-04-11 16:55:00,
2013-04-11 13:00:00,87.1,70.0,29.95,SSE,164,13.9,20.7,57,0.00,CLR,OVC,0.00,WeatherDisplay:10.37,2013-04-11 17:00:00,
2013-04-11 13:05:00,87.3,70.7,29.95,SSE,165,14.3,18.4,58,0.00,CLR,OVC,0.00,WeatherDisplay:10.37,2013-04-11 17:05:00,
2013-04-11 13:10:00,87.0,70.4,29.94,South,186,14.3,19.6,58,0.00,CLR,OVC,0.00,WeatherDisplay:10.37,2013-04-11 17:10:00,
2013-04-11 13:15:00,87.4,70.3,29.94,SSE,155,11.9,23.0,57,0.00,CLR,OVC,0.00,WeatherDisplay:10.37,2013-04-11 17:15:00,
2013-04-11 13:20:00,87.7,71.1,29.94,South,184,8.0,11.5,58,0.00,CLR,OVC,0.00,WeatherDisplay:10.37,2013-04-11 17:20:00,
2013-04-11 13:25:00,87.7,70.6,29.94,SE,131,13.5,18.4,57,0.00,CLR,OVC,0.00,WeatherDisplay:10.37,2013-04-11 17:25:00,
2013-04-11 13:30:00,88.0,70.9,29.93,SSE,161,11.5,18.3,57,0.00,CLR,OVC,0.00,WeatherDisplay:10.37,2013-04-11 17:30:00,
2013-04-11 13:35:00,88.7,69.9,29.93,SSW,193,8.6,10.4,54,0.00,CLR,OVC,0.00,WeatherDisplay:10.37,2013-04-11 17:35:00,
2013-04-11 13:40:00,88.8,70.5,29.93,SSW,203,8.8,11.5,55,0.00,CLR,OVC,0.00,WeatherDisplay:10.37,2013-04-11 17:40:00,
2013-04-11 13:45:00,88.5,70.8,29.93,South,174,8.6,13.8,56,0.00,CLR,OVC,0.00,WeatherDisplay:10.37,2013-04-11 17:45:00,
2013-04-11 13:50:00,88.3,71.1,29.93,SSW,200,8.7,15.0,57,0.00,CLR,OVC,0.00,WeatherDisplay:10.37,2013-04-11 17:50:00,
2013-04-11 13:55:00,88.1,71.5,29.93,South,169,10.2,14.7,58,0.00,CLR,OVC,0.00,WeatherDisplay:10.37,2013-04-11 17:55:00,
2013-04-11 14:00:00,87.9,71.3,29.92,SSW,205,10.2,12.7,58,0.00,CLR,OVC,0.00,WeatherDisplay:10.37,2013-04-11 18:00:00,
2013-04-11 14:05:00,87.3,70.7,29.93,South,184,11.2,17.9,58,0.00,CLR,OVC,0.00,WeatherDisplay:10.37,2013-04-11 18:05:00,
2013-04-11 14:10:00,87.3,69.7,29.93,SSW,212,11.4,18.4,56,0.00,CLR,OVC,0.00,WeatherDisplay:10.37,2013-04-11 18:10:00,
2013-04-11 14:15:00,87.8,69.6,29.93,South,176,8.3,12.7,55,0.00,CLR,OVC,0.00,WeatherDisplay:10.37,2013-04-11 18:15:00,
2013-04-11 14:20:00,88.2,70.0,29.93,South,181,13.1,20.7,55,0.00,CLR,OVC,0.00,WeatherDisplay:10.37,2013-04-11 18:20:00,
2013-04-11 14:25:00,89.4,70.6,29.93,South,184,10.7,18.4,54,0.00,CLR,OVC,0.00,WeatherDisplay:10.37,2013-04-11 18:25:00,
2013-04-11 14:30:00,90.0,70.0,29.93,SSW,195,7.6,13.8,52,0.00,CLR,OVC,0.00,WeatherDisplay:10.37,2013-04-11 18:30:00,
2013-04-11 14:35:00,90.2,69.6,29.93,WSW,241,11.6,19.6,51,0.00,CLR,OVC,0.00,WeatherDisplay:10.37,2013-04-11 18:35:00,
2013-04-11 14:40:00,88.9,70.1,29.92,South,184,14.0,18.4,54,0.00,CLR,OVC,0.00,WeatherDisplay:10.37,2013-04-11 18:40:00,
2013-04-11 14:45:00,88.2,70.0,29.92,SW,216,11.1,16.1,55,0.00,CLR,OVC,0.00,WeatherDisplay:10.37,2013-04-11 18:45:00,
2013-04-11 14:50:00,88.5,70.8,29.92,SSE,162,14.0,19.6,56,0.00,CLR,OVC,0.00,WeatherDisplay:10.37,2013-04-11 18:50:00,
2013-04-11 14:55:00,87.8,69.6,29.92,SSW,206,14.0,23.0,55,0.00,CLR,OVC,0.00,WeatherDisplay:10.37,2013-04-11 18:55:00,
2013-04-11 15:00:00,89.1,70.3,29.91,SSE,157,13.8,18.4,54,0.00,CLR,OVC,0.00,WeatherDisplay:10.37,2013-04-11 19:00:00,
2013-04-11 15:05:00,89.8,69.8,29.91,South,185,12.6,16.1,52,0.00,CLR,OVC,0.00,WeatherDisplay:10.37,2013-04-11 19:05:00,
2013-04-11 15:10:00,89.4,70.0,29.91,South,171,12.0,18.4,53,0.00,CLR,OVC,0.00,WeatherDisplay:10.37,2013-04-11 19:10:00,
2013-04-11 15:15:00,89.8,69.3,29.91,South,191,15.7,21.9,51,0.00,CLR,OVC,0.00,WeatherDisplay:10.37,2013-04-11 19:15:00,
2013-04-11 15:20:00,89.7,69.2,29.91,South,184,14.1,19.6,51,0.00,CLR,OVC,0.00,WeatherDisplay:10.37,2013-04-11 19:20:00,
2013-04-11 15:25:00,89.4,69.5,29.90,SSW,192,13.9,19.6,52,0.00,CLR,OVC,0.00,WeatherDisplay:10.37,2013-04-11 19:25:00,
2013-04-11 15:30:00,87.3,69.2,29.91,South,171,12.0,19.6,55,0.00,CLR,OVC,0.00,WeatherDisplay:10.37,2013-04-11 19:30:00,
2013-04-11 15:35:00,86.5,70.0,29.90,SSE,165,11.3,20.7,58,0.00,CLR,OVC,0.00,WeatherDisplay:10.37,2013-04-11 19:35:00,
2013-04-11 15:40:00,86.9,69.8,29.90,SSE,157,12.8,18.4,57,0.00,CLR,OVC,0.00,WeatherDisplay:10.37,2013-04-11 19:40:00,
2013-04-11 15:45:00,87.3,70.2,29.89,SSE,162,15.5,20.7,57,0.00,CLR,OVC,0.00,WeatherDisplay:10.37,2013-04-11 19:45:00,
2013-04-11 15:50:00,87.7,70.1,29.89,South,188,13.0,21.9,56,0.00,CLR,OVC,0.00,WeatherDisplay:10.37,2013-04-11 19:50:00,
2013-04-11 15:55:00,87.6,69.4,29.89,SSW,203,14.9,19.6,55,0.00,CLR,OVC,0.00,WeatherDisplay:10.37,2013-04-11 19:55:00,
2013-04-11 16:00:00,87.8,69.6,29.89,SSW,213,12.5,18.4,55,0.00,CLR,OVC,0.00,WeatherDisplay:10.37,2013-04-11 20:00:00,
2013-04-11 16:05:00,88.4,70.2,29.89,South,186,10.0,16.7,55,0.00,CLR,OVC,0.00,WeatherDisplay:10.37,2013-04-11 20:05:00,
2013-04-11 16:10:00,88.2,70.0,29.89,South,175,11.4,21.9,55,0.00,CLR,OVC,0.00,WeatherDisplay:10.37,2013-04-11 20:10:00,
2013-04-11 16:15:00,88.3,69.5,29.89,South,186,14.0,18.4,54,0.00,CLR,OVC,0.00,WeatherDisplay:10.37,2013-04-11 20:15:00,
2013-04-11 16:20:00,86.7,70.2,29.89,SW,229,15.8,19.6,58,0.00,CLR,OVC,0.00,WeatherDisplay:10.37,2013-04-11 20:20:00,
2013-04-11 16:25:00,85.4,70.4,29.89,SSW,206,15.7,21.9,61,0.00,CLR,OVC,0.00,WeatherDisplay:10.37,2013-04-11 20:25:00,
2013-04-11 16:30:00,85.1,70.1,29.89,South,186,12.9,16.1,61,0.00,CLR,OVC,0.00,WeatherDisplay:10.37,2013-04-11 20:30:00,
2013-04-11 16:35:00,85.4,69.9,29.89,SSE,168,10.1,18.4,60,0.00,CLR,OVC,0.00,WeatherDisplay:10.37,2013-04-11 20:35:00,
2013-04-11 16:40:00,85.5,70.0,29.89,SW,224,9.9,16.2,60,0.00,CLR,OVC,0.00,WeatherDisplay:10.37,2013-04-11 20:40:00,
2013-04-11 16:45:00,84.7,69.8,29.88,SSW,196,12.1,16.1,61,0.00,CLR,OVC,0.00,WeatherDisplay:10.37,2013-04-11 20:45:00,
2013-04-11 16:50:00,85.1,70.1,29.88,SSW,200,11.3,13.8,61,0.00,CLR,OVC,0.00,WeatherDisplay:10.37,2013-04-11 20:50:00,
2013-04-11 16:55:00,85.1,70.6,29.88,SSW,200,9.9,20.7,62,0.00,CLR,OVC,0.00,WeatherDisplay:10.37,2013-04-11 20:55:00,
2013-04-11 17:00:00,84.6,70.1,29.88,SSW,192,12.9,19.6,62,0.00,CLR,OVC,0.00,WeatherDisplay:10.37,2013-04-11 21:00:00,
2013-04-11 17:05:00,85.8,70.3,29.88,SSE,158,15.2,17.3,60,0.00,CLR,OVC,0.00,WeatherDisplay:10.37,2013-04-11 21:05:00,
2013-04-11 17:10:00,86.5,70.0,29.88,SW,230,7.4,16.1,58,0.00,CLR,OVC,0.00,WeatherDisplay:10.37,2013-04-11 21:10:00,
2013-04-11 17:15:00,85.9,70.4,29.88,SSE,160,11.9,15.0,60,0.00,CLR,OVC,0.00,WeatherDisplay:10.37,2013-04-11 21:15:00,
2013-04-11 17:20:00,85.4,70.9,29.88,SSW,212,10.4,18.4,62,0.00,CLR,OVC,0.00,WeatherDisplay:10.37,2013-04-11 21:20:00,
2013-04-11 17:25:00,84.8,70.8,29.88,South,184,13.2,18.4,63,0.00,CLR,OVC,0.00,WeatherDisplay:10.37,2013-04-11 21:25:00,
2013-04-11 17:31:00,84.5,71.0,29.88,SSW,192,9.2,23.0,64,0.00,CLR,OVC,0.00,WeatherDisplay:10.37,2013-04-11 21:31:00,
2013-04-11 17:36:00,83.2,71.5,29.88,South,172,13.4,25.3,68,0.00,CLR,OVC,0.00,WeatherDisplay:10.37,2013-04-11 21:36:00,
2013-04-11 17:41:00,82.4,71.6,29.88,SSW,213,17.5,21.9,70,0.00,CLR,OVC,0.00,WeatherDisplay:10.37,2013-04-11 21:41:00,
2013-04-11 17:46:00,82.3,71.5,29.88,South,185,11.9,15.3,70,0.00,CLR,OVC,0.00,WeatherDisplay:10.37,2013-04-11 21:46:00,
2013-04-11 17:51:00,82.9,71.7,29.87,SSW,203,10.4,20.7,69,0.00,CLR,OVC,0.00,WeatherDisplay:10.37,2013-04-11 21:51:00,
2013-04-11 17:56:00,83.6,71.9,29.87,SSE,165,12.2,23.0,68,0.00,CLR,OVC,0.00,WeatherDisplay:10.37,2013-04-11 21:56:00,
2013-04-11 18:01:00,83.5,71.8,29.87,SSW,205,10.0,23.0,68,0.00,CLR,OVC,0.00,WeatherDisplay:10.37,2013-04-11 22:01:00,
2013-04-11 18:06:00,83.5,71.8,29.87,SSW,192,10.6,16.1,68,0.00,CLR,OVC,0.00,WeatherDisplay:10.37,2013-04-11 22:06:00,
2013-04-11 18:11:00,82.7,71.1,29.87,South,186,18.3,25.1,68,0.00,CLR,OVC,0.00,WeatherDisplay:10.37,2013-04-11 22:11:00,
2013-04-11 18:16:00,82.3,71.5,29.87,SSE,160,13.7,23.0,70,0.00,CLR,OVC,0.00,WeatherDisplay:10.37,2013-04-11 22:16:00,
2013-04-11 18:21:00,82.4,71.6,29.86,SSW,199,13.5,17.3,70,0.00,CLR,OVC,0.00,WeatherDisplay:10.37,2013-04-11 22:21:00,
2013-04-11 18:26:00,81.5,72.0,29.86,SSW,206,13.9,19.6,73,0.00,CLR,OVC,0.00,WeatherDisplay:10.37,2013-04-11 22:26:00,
2013-04-11 18:31:00,81.4,71.5,29.86,SSW,196,12.7,21.9,72,0.00,CLR,OVC,0.00,WeatherDisplay:10.37,2013-04-11 22:31:00,
2013-04-11 18:36:00,81.4,71.5,29.86,SSW,209,12.4,21.9,72,0.00,CLR,OVC,0.00,WeatherDisplay:10.37,2013-04-11 22:36:00,
2013-04-11 18:41:00,81.5,71.6,29.86,SSW,196,11.0,20.7,72,0.00,CLR,OVC,0.00,WeatherDisplay:10.37,2013-04-11 22:41:00,
2013-04-11 18:46:00,81.5,71.6,29.86,SSW,195,12.9,19.6,72,0.00,CLR,OVC,0.00,WeatherDisplay:10.37,2013-04-11 22:46:00,
2013-04-11 18:51:00,81.1,71.6,29.85,SSE,151,11.5,18.4,73,0.00,CLR,OVC,0.00,WeatherDisplay:10.37,2013-04-11 22:51:00,
2013-04-11 18:56:00,80.3,71.6,29.85,SSW,196,11.6,19.6,75,0.00,CLR,OVC,0.00,WeatherDisplay:10.37,2013-04-11 22:56:00,
2013-04-11 19:01:00,80.2,71.9,29.85,SSW,198,13.0,15.0,76,0.00,CLR,OVC,0.00,WeatherDisplay:10.37,2013-04-11 23:01:00,
2013-04-11 19:06:00,79.9,72.0,29.85,South,186,14.6,14.6,77,0.00,CLR,OVC,0.00,WeatherDisplay:10.37,2013-04-11 23:06:00,
2013-04-11 19:11:00,79.4,71.9,29.86,South,182,14.6,20.7,78,0.00,CLR,OVC,0.00,WeatherDisplay:10.37,2013-04-11 23:11:00,
2013-04-11 19:16:00,79.2,72.1,29.86,SSW,193,10.7,16.1,79,0.00,CLR,OVC,0.00,WeatherDisplay:10.37,2013-04-11 23:16:00,
2013-04-11 19:21:00,79.0,71.9,29.86,SW,222,16.0,21.9,79,0.00,CLR,OVC,0.00,WeatherDisplay:10.37,2013-04-11 23:21:00,
2013-04-11 19:26:00,78.7,72.0,29.86,South,184,16.4,21.9,80,0.00,CLR,OVC,0.00,WeatherDisplay:10.37,2013-04-11 23:26:00,
2013-04-11 19:31:00,78.7,72.0,29.86,South,184,15.1,22.3,80,0.00,CLR,OVC,0.00,WeatherDisplay:10.37,2013-04-11 23:31:00,
2013-04-11 19:36:00,78.4,71.7,29.86,South,191,14.7,23.0,80,0.00,CLR,OVC,0.00,WeatherDisplay:10.37,2013-04-11 23:36:00,
2013-04-11 19:41:00,78.2,71.9,29.86,South,184,15.2,25.3,81,0.00,CLR,OVC,0.00,WeatherDisplay:10.37,2013-04-11 23:41:00,
2013-04-11 19:46:00,78.1,71.8,29.86,SSW,196,11.0,16.5,81,0.00,CLR,OVC,0.00,WeatherDisplay:10.37,2013-04-11 23:46:00,
2013-04-11 19:51:00,78.2,71.9,29.86,SSE,168,14.0,26.5,81,0.00,CLR,OVC,0.00,WeatherDisplay:10.37,2013-04-11 23:51:00,
2013-04-11 19:56:00,78.2,71.9,29.86,SE,143,13.8,21.9,81,0.00,CLR,OVC,0.00,WeatherDisplay:10.37,2013-04-11 23:56:00,
2013-04-11 20:01:00,78.0,71.7,29.86,South,176,11.7,16.1,81,0.00,CLR,OVC,0.00,WeatherDisplay:10.37,2013-04-12 00:01:00,
2013-04-11 20:06:00,78.0,72.1,29.86,SE,138,16.6,23.0,82,0.00,CLR,OVC,0.00,WeatherDisplay:10.37,2013-04-12 00:06:00,
2013-04-11 20:11:00,77.9,72.0,29.85,South,171,19.4,24.2,82,0.00,CLR,OVC,0.00,WeatherDisplay:10.37,2013-04-12 00:11:00,
2013-04-11 20:16:00,77.8,72.2,29.85,South,186,12.3,17.3,83,0.00,CLR,OVC,0.00,WeatherDisplay:10.37,2013-04-12 00:16:00,
2013-04-11 20:21:00,77.5,71.9,29.85,SSE,165,12.3,18.4,83,0.00,CLR,OVC,0.00,WeatherDisplay:10.37,2013-04-12 00:21:00,
2013-04-11 20:26:00,77.4,71.8,29.85,SSE,162,13.3,17.3,83,0.00,CLR,OVC,0.00,WeatherDisplay:10.37,2013-04-12 00:26:00,
2013-04-11 20:31:00,77.3,72.1,29.85,South,179,16.6,19.6,84,0.00,CLR,OVC,0.00,WeatherDisplay:10.37,2013-04-12 00:31:00,
2013-04-11 20:36:00,77.3,72.1,29.85,South,176,12.0,18.4,84,0.00,CLR,OVC,0.00,WeatherDisplay:10.37,2013-04-12 00:36:00,
2013-04-11 20:41:00,77.2,72.0,29.84,South,175,11.2,17.3,84,0.00,CLR,OVC,0.00,WeatherDisplay:10.37,2013-04-12 00:41:00,
2013-04-11 20:46:00,77.3,72.1,29.84,South,171,11.1,19.6,84,0.00,CLR,OVC,0.00,WeatherDisplay:10.37,2013-04-12 00:46:00,
2013-04-11 20:51:00,77.2,72.0,29.84,South,179,13.6,17.3,84,0.00,CLR,OVC,0.00,WeatherDisplay:10.37,2013-04-12 00:51:00,
2013-04-11 20:56:00,77.2,72.0,29.84,South,185,11.5,17.3,84,0.00,CLR,OVC,0.00,WeatherDisplay:10.37,2013-04-12 00:56:00,
2013-04-11 21:01:00,77.2,72.0,29.84,South,179,10.5,12.7,84,0.00,CLR,OVC,0.00,WeatherDisplay:10.37,2013-04-12 01:01:00,
2013-04-11 21:06:00,77.2,72.0,29.84,SE,143,10.6,16.1,84,0.00,CLR,OVC,0.00,WeatherDisplay:10.37,2013-04-12 01:06:00,
2013-04-11 21:11:00,77.2,72.0,29.84,South,186,9.3,16.1,84,0.00,CLR,OVC,0.00,WeatherDisplay:10.37,2013-04-12 01:11:00,
2013-04-11 21:16:00,77.2,72.0,29.84,SSW,192,12.3,13.8,84,0.00,CLR,OVC,0.00,WeatherDisplay:10.37,2013-04-12 01:16:00,
2013-04-11 21:21:00,77.2,72.0,29.84,SE,131,9.3,17.3,84,0.00,CLR,OVC,0.00,WeatherDisplay:10.37,2013-04-12 01:21:00,
2013-04-11 21:26:00,77.0,71.8,29.84,South,191,8.4,11.5,84,0.00,CLR,OVC,0.00,WeatherDisplay:10.37,2013-04-12 01:26:00,
2013-04-11 21:31:00,77.1,71.9,29.84,South,184,10.2,19.6,84,0.00,CLR,OVC,0.00,WeatherDisplay:10.37,2013-04-12 01:31:00,
2013-04-11 21:36:00,77.2,72.0,29.84,South,179,13.0,18.4,84,0.00,CLR,OVC,0.00,WeatherDisplay:10.37,2013-04-12 01:36:00,
2013-04-11 21:41:00,77.2,72.0,29.84,South,175,11.3,13.8,84,0.00,CLR,OVC,0.00,WeatherDisplay:10.37,2013-04-12 01:41:00,
2013-04-11 21:46:00,77.1,71.9,29.84,South,188,11.1,14.4,84,0.00,CLR,OVC,0.00,WeatherDisplay:10.37,2013-04-12 01:46:00,
2013-04-11 21:51:00,77.1,71.9,29.84,SSE,155,11.3,17.3,84,0.00,CLR,OVC,0.00,WeatherDisplay:10.37,2013-04-12 01:51:00,
2013-04-11 21:56:00,77.1,71.9,29.85,SSE,167,9.7,13.8,84,0.00,CLR,OVC,0.00,WeatherDisplay:10.37,2013-04-12 01:56:00,
2013-04-11 22:01:00,77.1,71.9,29.85,SSE,164,10.7,11.5,84,0.00,CLR,OVC,0.00,WeatherDisplay:10.37,2013-04-12 02:01:00,
2013-04-11 22:06:00,77.1,71.9,29.85,South,186,10.3,15.0,84,0.00,CLR,OVC,0.00,WeatherDisplay:10.37,2013-04-12 02:06:00,
2013-04-11 22:11:00,77.0,71.8,29.86,South,175,10.2,21.9,84,0.00,CLR,OVC,0.00,WeatherDisplay:10.37,2013-04-12 02:11:00,
2013-04-11 22:16:00,77.0,72.1,29.86,SW,217,12.5,17.3,85,0.00,CLR,OVC,0.00,WeatherDisplay:10.37,2013-04-12 02:16:00,
2013-04-11 22:21:00,76.8,71.9,29.86,SSE,150,11.9,18.4,85,0.00,CLR,OVC,0.00,WeatherDisplay:10.37,2013-04-12 02:21:00,
2013-04-11 22:26:00,76.8,72.3,29.87,SSE,158,15.3,16.1,86,0.00,CLR,OVC,0.00,WeatherDisplay:10.37,2013-04-12 02:26:00,
2013-04-11 22:31:00,76.7,72.2,29.87,SSW,195,9.4,18.4,86,0.00,CLR,OVC,0.00,WeatherDisplay:10.37,2013-04-12 02:31:00,
2013-04-11 22:36:00,76.7,72.2,29.88,South,175,12.5,20.7,86,0.00,CLR,OVC,0.00,WeatherDisplay:10.37,2013-04-12 02:36:00,
2013-04-11 22:41:00,76.6,71.7,29.89,South,189,8.4,13.8,85,0.00,CLR,OVC,0.00,WeatherDisplay:10.37,2013-04-12 02:41:00,
2013-04-11 22:46:00,76.7,71.8,29.89,SSW,192,10.6,13.8,85,0.00,CLR,OVC,0.00,WeatherDisplay:10.37,2013-04-12 02:46:00,
2013-04-11 22:51:00,76.6,71.7,29.89,SSE,165,12.4,13.8,85,0.00,CLR,OVC,0.00,WeatherDisplay:10.37,2013-04-12 02:51:00,
2013-04-11 22:56:00,76.6,71.7,29.89,South,184,8.9,15.0,85,0.00,CLR,OVC,0.00,WeatherDisplay:10.37,2013-04-12 02:56:00,
2013-04-11 23:01:00,76.8,71.9,29.89,South,185,9.6,13.8,85,0.00,CLR,OVC,0.00,WeatherDisplay:10.37,2013-04-12 03:01:00,
2013-04-11 23:06:00,76.8,71.9,29.89,South,191,13.3,16.1,85,0.00,CLR,OVC,0.00,WeatherDisplay:10.37,2013-04-12 03:06:00,
2013-04-11 23:11:00,76.8,71.6,29.89,South,179,12.6,18.4,84,0.00,CLR,OVC,0.00,WeatherDisplay:10.37,2013-04-12 03:11:00,
2013-04-11 23:16:00,76.9,72.0,29.89,SSE,157,12.1,17.3,85,0.00,CLR,OVC,0.00,WeatherDisplay:10.37,2013-04-12 03:16:00,
2013-04-11 23:21:00,76.8,71.9,29.89,SSE,164,12.0,16.1,85,0.00,CLR,OVC,0.00,WeatherDisplay:10.37,2013-04-12 03:21:00,
2013-04-11 23:26:00,77.0,72.1,29.89,South,189,9.8,12.7,85,0.00,CLR,OVC,0.00,WeatherDisplay:10.37,2013-04-12 03:26:00,
2013-04-11 23:31:00,77.0,72.1,29.90,South,189,8.4,17.3,85,0.00,CLR,OVC,0.00,WeatherDisplay:10.37,2013-04-12 03:31:00,
2013-04-11 23:36:00,77.1,72.6,29.90,SSE,168,11.8,13.8,86,0.00,CLR,OVC,0.00,WeatherDisplay:10.37,2013-04-12 03:36:00,
2013-04-11 23:41:00,77.0,72.5,29.89,South,186,13.8,18.4,86,0.00,CLR,OVC,0.00,WeatherDisplay:10.37,2013-04-12 03:41:00,
2013-04-11 23:46:00,77.0,72.5,29.89,SSE,160,12.3,15.0,86,0.00,CLR,OVC,0.00,WeatherDisplay:10.37,2013-04-12 03:46:00,
2013-04-11 23:51:00,76.9,72.7,29.90,South,184,11.8,15.0,87,0.00,CLR,OVC,0.00,WeatherDisplay:10.37,2013-04-12 03:51:00,
2013-04-11 23:56:00,76.9,72.7,29.90,SSE,167,12.8,18.4,87,0.00,CLR,OVC,0.00,WeatherDisplay:10.37,2013-04-12 03:56:00,